RYR4573 LIRA-LFBT
Flight info
| Callsign | RYR4573 |
|---|---|
| Flight time | 1h 30m |
| Altitude | 36000 |
| Route | GILIO DCT ELB DCT IXITO DCT GEKBA DCT VAMTU DCT KOLON DCT GANGU DCT PADKO DCT FJR DCT GAI DCT AGN |
| Aircraft | B738/M-SDE2E3FGHIRWXY/LB1 |
Departure
| Time | 2026-05-07 13:04 |
|---|---|
| Airport | Ciampino–G. B. Pastine International Airport (LIRA) |
Arrival
| Time | 2026-05-07 14:34 |
|---|---|
| Airport | Tarbes-Lourdes-Pyrénées Airport (LFBT) |
| Time | Latitude | Longitude | Altitude | Speed | Heading |
|---|---|---|---|---|---|
| 2026-05-07 12:38 | 41.80008 | 12.59125 | 403 ft | 0 kts | 288° |
| 2026-05-07 12:57 | 41.80005 | 12.59133 | 405 ft | 4 kts | 268° |
| 2026-05-07 12:57 | 41.80011 | 12.59155 | 403 ft | 4 kts | 243° |
| 2026-05-07 12:57 | 41.80022 | 12.59184 | 403 ft | 4 kts | 257° |
| 2026-05-07 12:57 | 41.80020 | 12.59216 | 404 ft | 4 kts | 308° |
| 2026-05-07 12:58 | 41.80005 | 12.59234 | 400 ft | 0 kts | 333° |
| 2026-05-07 13:01 | 41.80041 | 12.59208 | 406 ft | 18 kts | 333° |
| 2026-05-07 13:01 | 41.80119 | 12.59155 | 406 ft | 19 kts | 332° |
| 2026-05-07 13:02 | 41.80233 | 12.59076 | 406 ft | 19 kts | 333° |
| 2026-05-07 13:02 | 41.80364 | 12.58986 | 406 ft | 24 kts | 332° |
| 2026-05-07 13:02 | 41.80524 | 12.58877 | 404 ft | 27 kts | 333° |
| 2026-05-07 13:02 | 41.80678 | 12.58769 | 406 ft | 20 kts | 337° |
| 2026-05-07 13:03 | 41.80769 | 12.58875 | 418 ft | 18 kts | 62° |
| 2026-05-07 13:03 | 41.80716 | 12.58947 | 418 ft | 13 kts | 153° |
| 2026-05-07 13:03 | 41.80420 | 12.59150 | 415 ft | 86 kts | 153° |
| 2026-05-07 13:03 | 41.79686 | 12.59655 | 414 ft | 152 kts | 152° |
| 2026-05-07 13:04 | 41.78612 | 12.60370 | 742 ft | 182 kts | 156° |
| 2026-05-07 13:04 | 41.77520 | 12.60995 | 1836 ft | 167 kts | 156° |
| 2026-05-07 13:04 | 41.76351 | 12.61353 | 2471 ft | 185 kts | 179° |
| 2026-05-07 13:04 | 41.74984 | 12.60998 | 2812 ft | 214 kts | 205° |
| 2026-05-07 13:05 | 41.73762 | 12.59820 | 3384 ft | 222 kts | 230° |
| 2026-05-07 13:05 | 41.73032 | 12.57998 | 4154 ft | 224 kts | 257° |
| 2026-05-07 13:05 | 41.73010 | 12.55931 | 5066 ft | 224 kts | 281° |
| 2026-05-07 13:05 | 41.73443 | 12.53846 | 5606 ft | 245 kts | 287° |
| 2026-05-07 13:06 | 41.73997 | 12.51560 | 6046 ft | 267 kts | 288° |
| 2026-05-07 13:06 | 41.74596 | 12.49163 | 6855 ft | 273 kts | 288° |
| 2026-05-07 13:06 | 41.75201 | 12.46748 | 7761 ft | 276 kts | 287° |
| 2026-05-07 13:06 | 41.75831 | 12.44214 | 8159 ft | 300 kts | 287° |
| 2026-05-07 13:07 | 41.76516 | 12.41442 | 8385 ft | 327 kts | 287° |
| 2026-05-07 13:07 | 41.77255 | 12.38432 | 8593 ft | 352 kts | 287° |
| 2026-05-07 13:07 | 41.78041 | 12.35219 | 8894 ft | 371 kts | 287° |
| 2026-05-07 13:07 | 41.78851 | 12.31895 | 9554 ft | 378 kts | 287° |
| 2026-05-07 13:08 | 41.79670 | 12.28530 | 10349 ft | 381 kts | 287° |
| 2026-05-07 13:08 | 41.80489 | 12.25151 | 11111 ft | 383 kts | 286° |
| 2026-05-07 13:08 | 41.81315 | 12.21738 | 11795 ft | 386 kts | 286° |
| 2026-05-07 13:08 | 41.82145 | 12.18296 | 12574 ft | 390 kts | 286° |
| 2026-05-07 13:09 | 41.82982 | 12.14821 | 13266 ft | 393 kts | 286° |
| 2026-05-07 13:09 | 41.83813 | 12.11360 | 13934 ft | 397 kts | 285° |
| 2026-05-07 13:09 | 41.84661 | 12.07825 | 14551 ft | 399 kts | 285° |
| 2026-05-07 13:09 | 41.85511 | 12.04277 | 15206 ft | 400 kts | 285° |
| 2026-05-07 13:10 | 41.86362 | 12.00721 | 15908 ft | 401 kts | 285° |
| 2026-05-07 13:10 | 41.87216 | 11.97149 | 16518 ft | 403 kts | 285° |
| 2026-05-07 13:10 | 41.88072 | 11.93554 | 17087 ft | 406 kts | 285° |
| 2026-05-07 13:10 | 41.88935 | 11.89928 | 17647 ft | 409 kts | 285° |
| 2026-05-07 13:11 | 41.89802 | 11.86280 | 18213 ft | 412 kts | 285° |
| 2026-05-07 13:11 | 41.90674 | 11.82607 | 18711 ft | 414 kts | 285° |
| 2026-05-07 13:11 | 41.91548 | 11.78917 | 19190 ft | 416 kts | 285° |
| 2026-05-07 13:11 | 41.92426 | 11.75204 | 19672 ft | 418 kts | 284° |
| 2026-05-07 13:12 | 41.93307 | 11.71474 | 20150 ft | 420 kts | 284° |
| 2026-05-07 13:12 | 41.94191 | 11.67725 | 20610 ft | 422 kts | 284° |
| 2026-05-07 13:12 | 41.95078 | 11.63955 | 21042 ft | 425 kts | 284° |
| 2026-05-07 13:12 | 41.95971 | 11.60155 | 21478 ft | 428 kts | 284° |
| 2026-05-07 13:13 | 41.96866 | 11.56338 | 21923 ft | 429 kts | 284° |
| 2026-05-07 13:13 | 41.97765 | 11.52500 | 22357 ft | 431 kts | 284° |
| 2026-05-07 13:13 | 41.98665 | 11.48649 | 22764 ft | 433 kts | 284° |
| 2026-05-07 13:13 | 41.99570 | 11.44774 | 23162 ft | 435 kts | 284° |
| 2026-05-07 13:14 | 42.00476 | 11.40884 | 23567 ft | 437 kts | 284° |
| 2026-05-07 13:14 | 42.01385 | 11.36975 | 23883 ft | 439 kts | 284° |
| 2026-05-07 13:14 | 42.02296 | 11.33054 | 24232 ft | 440 kts | 284° |
| 2026-05-07 13:14 | 42.03206 | 11.29125 | 24590 ft | 440 kts | 284° |
| 2026-05-07 13:15 | 42.04118 | 11.25186 | 24918 ft | 441 kts | 284° |
| 2026-05-07 13:15 | 42.05030 | 11.21235 | 25236 ft | 443 kts | 284° |
| 2026-05-07 13:15 | 42.05943 | 11.17277 | 25546 ft | 444 kts | 283° |
| 2026-05-07 13:15 | 42.06856 | 11.13309 | 25843 ft | 444 kts | 283° |
| 2026-05-07 13:16 | 42.07770 | 11.09329 | 26133 ft | 445 kts | 283° |
| 2026-05-07 13:16 | 42.08682 | 11.05358 | 26454 ft | 443 kts | 283° |
| 2026-05-07 13:16 | 42.09588 | 11.01404 | 26855 ft | 440 kts | 283° |
| 2026-05-07 13:16 | 42.10486 | 10.97477 | 27278 ft | 437 kts | 283° |
| 2026-05-07 13:17 | 42.11377 | 10.93574 | 27675 ft | 435 kts | 283° |
| 2026-05-07 13:17 | 42.12262 | 10.89690 | 28046 ft | 434 kts | 283° |
| 2026-05-07 13:17 | 42.13142 | 10.85814 | 28425 ft | 432 kts | 283° |
| 2026-05-07 13:17 | 42.14018 | 10.81954 | 28835 ft | 429 kts | 283° |
| 2026-05-07 13:18 | 42.14876 | 10.78167 | 29249 ft | 427 kts | 283° |
| 2026-05-07 13:18 | 42.15739 | 10.74346 | 29651 ft | 425 kts | 283° |
| 2026-05-07 13:18 | 42.16609 | 10.70492 | 30051 ft | 424 kts | 283° |
| 2026-05-07 13:18 | 42.17452 | 10.66750 | 30387 ft | 422 kts | 283° |
| 2026-05-07 13:19 | 42.18302 | 10.62970 | 30668 ft | 421 kts | 283° |
| 2026-05-07 13:19 | 42.19152 | 10.59183 | 30922 ft | 422 kts | 282° |
| 2026-05-07 13:19 | 42.19998 | 10.55405 | 31210 ft | 421 kts | 282° |
| 2026-05-07 13:19 | 42.20843 | 10.51629 | 31517 ft | 420 kts | 282° |
| 2026-05-07 13:20 | 42.21684 | 10.47864 | 31801 ft | 419 kts | 282° |
| 2026-05-07 13:20 | 42.22522 | 10.44104 | 32066 ft | 419 kts | 282° |
| 2026-05-07 13:20 | 42.23359 | 10.40340 | 32342 ft | 418 kts | 282° |
| 2026-05-07 13:20 | 42.24193 | 10.36589 | 32631 ft | 417 kts | 282° |
| 2026-05-07 13:21 | 42.25025 | 10.32837 | 32906 ft | 417 kts | 282° |
| 2026-05-07 13:21 | 42.25854 | 10.29094 | 33172 ft | 416 kts | 282° |
| 2026-05-07 13:21 | 42.26680 | 10.25356 | 33446 ft | 415 kts | 282° |
| 2026-05-07 13:21 | 42.27505 | 10.21619 | 33715 ft | 415 kts | 282° |
| 2026-05-07 13:22 | 42.28326 | 10.17892 | 33991 ft | 414 kts | 282° |
| 2026-05-07 13:22 | 42.29146 | 10.14162 | 34219 ft | 414 kts | 282° |
| 2026-05-07 13:22 | 42.29964 | 10.10437 | 34429 ft | 413 kts | 282° |
| 2026-05-07 13:22 | 42.30780 | 10.06716 | 34654 ft | 413 kts | 282° |
| 2026-05-07 13:23 | 42.31592 | 10.03000 | 34866 ft | 412 kts | 282° |
| 2026-05-07 13:23 | 42.32404 | 9.99282 | 35085 ft | 412 kts | 282° |
| 2026-05-07 13:23 | 42.33213 | 9.95571 | 35288 ft | 412 kts | 282° |
| 2026-05-07 13:23 | 42.34021 | 9.91861 | 35493 ft | 411 kts | 281° |
| 2026-05-07 13:24 | 42.34826 | 9.88155 | 35706 ft | 411 kts | 281° |
| 2026-05-07 13:24 | 42.35630 | 9.84448 | 35919 ft | 410 kts | 281° |
| 2026-05-07 13:24 | 42.37238 | 9.77008 | 36008 ft | 415 kts | 281° |
| 2026-05-07 13:25 | 42.38851 | 9.69521 | 36009 ft | 413 kts | 281° |
| 2026-05-07 13:25 | 42.40454 | 9.62065 | 36017 ft | 412 kts | 281° |
| 2026-05-07 13:26 | 42.42046 | 9.54628 | 36019 ft | 411 kts | 281° |
| 2026-05-07 13:26 | 42.43632 | 9.47189 | 36028 ft | 411 kts | 281° |
| 2026-05-07 13:27 | 42.45214 | 9.39744 | 36031 ft | 412 kts | 281° |
| 2026-05-07 13:27 | 42.46793 | 9.32286 | 36000 ft | 412 kts | 281° |
| 2026-05-07 13:28 | 42.48368 | 9.24821 | 35989 ft | 413 kts | 281° |
| 2026-05-07 13:28 | 42.49942 | 9.17335 | 35985 ft | 413 kts | 281° |
| 2026-05-07 13:29 | 42.51512 | 9.09839 | 35985 ft | 414 kts | 281° |
| 2026-05-07 13:29 | 42.53080 | 9.02330 | 35996 ft | 414 kts | 281° |
| 2026-05-07 13:30 | 42.54645 | 8.94808 | 36004 ft | 414 kts | 281° |
| 2026-05-07 13:30 | 42.56202 | 8.87291 | 35987 ft | 414 kts | 281° |
| 2026-05-07 13:31 | 42.57744 | 8.79826 | 35991 ft | 414 kts | 281° |
| 2026-05-07 13:31 | 42.59292 | 8.72299 | 35997 ft | 414 kts | 281° |
| 2026-05-07 13:32 | 42.60835 | 8.64770 | 35995 ft | 414 kts | 281° |
| 2026-05-07 13:32 | 42.62374 | 8.57237 | 35990 ft | 414 kts | 281° |
| 2026-05-07 13:33 | 42.63907 | 8.49702 | 35990 ft | 414 kts | 280° |
| 2026-05-07 13:33 | 42.65434 | 8.42164 | 35995 ft | 414 kts | 280° |
| 2026-05-07 13:34 | 42.67717 | 8.30849 | 35994 ft | 414 kts | 280° |
| 2026-05-07 13:35 | 42.69234 | 8.23294 | 35991 ft | 415 kts | 280° |
| 2026-05-07 13:35 | 42.70748 | 8.15725 | 36003 ft | 415 kts | 280° |
| 2026-05-07 13:36 | 42.72257 | 8.08157 | 35989 ft | 415 kts | 280° |
| 2026-05-07 13:36 | 42.73761 | 8.00581 | 36001 ft | 415 kts | 280° |
| 2026-05-07 13:37 | 42.75261 | 7.92994 | 36003 ft | 417 kts | 280° |
| 2026-05-07 13:37 | 42.76763 | 7.85370 | 35995 ft | 418 kts | 280° |
| 2026-05-07 13:38 | 42.78263 | 7.77725 | 35993 ft | 418 kts | 280° |
| 2026-05-07 13:38 | 42.79760 | 7.70068 | 35992 ft | 419 kts | 280° |
| 2026-05-07 13:39 | 42.81254 | 7.62398 | 35990 ft | 419 kts | 280° |
| 2026-05-07 13:39 | 42.82743 | 7.54724 | 35993 ft | 419 kts | 280° |
| 2026-05-07 13:40 | 42.84229 | 7.47034 | 35993 ft | 420 kts | 280° |
| 2026-05-07 13:40 | 42.85709 | 7.39342 | 35992 ft | 420 kts | 280° |
| 2026-05-07 13:41 | 42.87185 | 7.31645 | 35995 ft | 420 kts | 280° |
| 2026-05-07 13:41 | 42.88655 | 7.23944 | 35988 ft | 420 kts | 280° |
| 2026-05-07 13:42 | 42.90121 | 7.16240 | 35989 ft | 420 kts | 280° |
| 2026-05-07 13:42 | 42.91581 | 7.08532 | 35986 ft | 420 kts | 279° |
| 2026-05-07 13:43 | 42.93035 | 7.00823 | 35988 ft | 419 kts | 279° |
| 2026-05-07 13:43 | 42.94473 | 6.93167 | 35985 ft | 419 kts | 279° |
| 2026-05-07 13:44 | 42.95917 | 6.85454 | 35987 ft | 419 kts | 279° |
| 2026-05-07 13:44 | 42.97356 | 6.77731 | 35996 ft | 420 kts | 279° |
| 2026-05-07 13:45 | 42.98792 | 6.69994 | 35985 ft | 420 kts | 279° |
| 2026-05-07 13:45 | 43.00224 | 6.62250 | 35986 ft | 421 kts | 279° |
| 2026-05-07 13:46 | 43.01651 | 6.54496 | 35986 ft | 421 kts | 279° |
| 2026-05-07 13:46 | 43.03073 | 6.46741 | 35992 ft | 421 kts | 279° |
| 2026-05-07 13:47 | 43.04493 | 6.38965 | 35994 ft | 422 kts | 279° |
| 2026-05-07 13:47 | 43.05907 | 6.31183 | 36004 ft | 422 kts | 279° |
| 2026-05-07 13:48 | 43.07320 | 6.23379 | 35994 ft | 423 kts | 279° |
| 2026-05-07 13:48 | 43.08729 | 6.15568 | 35995 ft | 423 kts | 279° |
| 2026-05-07 13:49 | 43.10122 | 6.07808 | 36014 ft | 423 kts | 279° |
| 2026-05-07 13:49 | 43.11523 | 5.99969 | 35995 ft | 424 kts | 279° |
| 2026-05-07 13:50 | 43.12920 | 5.92122 | 35993 ft | 425 kts | 279° |
| 2026-05-07 13:50 | 43.14312 | 5.84267 | 35994 ft | 424 kts | 279° |
| 2026-05-07 13:51 | 43.15467 | 5.77726 | 35985 ft | 425 kts | 279° |
| 2026-05-07 13:51 | 43.16850 | 5.69865 | 36006 ft | 425 kts | 279° |
| 2026-05-07 13:52 | 43.18229 | 5.61989 | 35995 ft | 425 kts | 279° |
| 2026-05-07 13:52 | 43.19600 | 5.54119 | 35984 ft | 425 kts | 279° |
| 2026-05-07 13:53 | 43.20965 | 5.46259 | 36000 ft | 425 kts | 278° |
| 2026-05-07 13:53 | 43.22331 | 5.38359 | 35992 ft | 424 kts | 278° |
| 2026-05-07 13:54 | 43.23824 | 5.30522 | 35999 ft | 428 kts | 283° |
| 2026-05-07 13:54 | 43.25836 | 5.22830 | 35994 ft | 429 kts | 285° |
| 2026-05-07 13:55 | 43.27908 | 5.15139 | 35998 ft | 430 kts | 285° |
| 2026-05-07 13:55 | 43.29944 | 5.07428 | 35996 ft | 430 kts | 284° |
| 2026-05-07 13:56 | 43.31952 | 4.99699 | 35991 ft | 430 kts | 284° |
| 2026-05-07 13:56 | 43.33952 | 4.91947 | 36001 ft | 431 kts | 284° |
| 2026-05-07 13:57 | 43.35952 | 4.84164 | 36003 ft | 433 kts | 284° |
| 2026-05-07 13:57 | 43.37955 | 4.76350 | 35998 ft | 434 kts | 284° |
| 2026-05-07 13:58 | 43.39957 | 4.68513 | 35990 ft | 435 kts | 284° |
| 2026-05-07 13:58 | 43.41956 | 4.60667 | 35988 ft | 435 kts | 284° |
| 2026-05-07 13:59 | 43.43951 | 4.52809 | 35993 ft | 435 kts | 284° |
| 2026-05-07 13:59 | 43.45942 | 4.44938 | 35989 ft | 436 kts | 284° |
| 2026-05-07 14:00 | 43.47930 | 4.37054 | 35991 ft | 436 kts | 284° |
| 2026-05-07 14:00 | 43.49911 | 4.29171 | 35994 ft | 436 kts | 284° |
| 2026-05-07 14:01 | 43.51887 | 4.21279 | 35995 ft | 436 kts | 284° |
| 2026-05-07 14:01 | 43.53847 | 4.13425 | 35998 ft | 437 kts | 284° |
| 2026-05-07 14:02 | 43.55818 | 4.05501 | 35996 ft | 438 kts | 284° |
| 2026-05-07 14:02 | 43.57784 | 3.97543 | 35998 ft | 438 kts | 283° |
| 2026-05-07 14:03 | 43.59394 | 3.89454 | 36002 ft | 437 kts | 279° |
| 2026-05-07 14:03 | 43.60842 | 3.81308 | 35989 ft | 438 kts | 279° |
| 2026-05-07 14:04 | 43.62298 | 3.73140 | 35989 ft | 439 kts | 280° |
| 2026-05-07 14:04 | 43.63779 | 3.64949 | 35989 ft | 440 kts | 280° |
| 2026-05-07 14:05 | 43.65268 | 3.56750 | 35982 ft | 441 kts | 280° |
| 2026-05-07 14:05 | 43.66756 | 3.48532 | 35985 ft | 441 kts | 280° |
| 2026-05-07 14:06 | 43.68236 | 3.40319 | 35986 ft | 441 kts | 280° |
| 2026-05-07 14:06 | 43.69712 | 3.32092 | 35978 ft | 441 kts | 279° |
| 2026-05-07 14:07 | 43.71179 | 3.23870 | 35983 ft | 441 kts | 279° |
| 2026-05-07 14:07 | 43.72641 | 3.15645 | 35979 ft | 440 kts | 279° |
| 2026-05-07 14:08 | 43.74095 | 3.07424 | 35976 ft | 440 kts | 279° |
| 2026-05-07 14:08 | 43.75533 | 2.99257 | 35984 ft | 440 kts | 279° |
| 2026-05-07 14:09 | 43.76976 | 2.91023 | 35970 ft | 440 kts | 279° |
| 2026-05-07 14:09 | 43.78413 | 2.82786 | 35975 ft | 441 kts | 279° |
| 2026-05-07 14:10 | 43.79845 | 2.74543 | 35993 ft | 441 kts | 279° |
| 2026-05-07 14:10 | 43.80562 | 2.70394 | 35663 ft | 447 kts | 279° |
| 2026-05-07 14:10 | 43.81280 | 2.66241 | 35471 ft | 437 kts | 279° |
| 2026-05-07 14:10 | 43.81977 | 2.62215 | 35399 ft | 423 kts | 279° |
| 2026-05-07 14:11 | 43.82651 | 2.58318 | 35324 ft | 410 kts | 279° |
| 2026-05-07 14:11 | 43.83302 | 2.54536 | 35244 ft | 398 kts | 279° |
| 2026-05-07 14:11 | 43.83936 | 2.50840 | 34978 ft | 392 kts | 279° |
| 2026-05-07 14:11 | 43.84560 | 2.47170 | 34575 ft | 390 kts | 279° |
| 2026-05-07 14:12 | 43.85180 | 2.43518 | 34175 ft | 389 kts | 279° |
| 2026-05-07 14:12 | 43.85796 | 2.39885 | 33800 ft | 386 kts | 279° |
| 2026-05-07 14:12 | 43.86407 | 2.36285 | 33409 ft | 382 kts | 279° |
| 2026-05-07 14:12 | 43.87012 | 2.32711 | 33001 ft | 380 kts | 279° |
| 2026-05-07 14:13 | 43.87612 | 2.29159 | 32589 ft | 378 kts | 279° |
| 2026-05-07 14:13 | 43.88209 | 2.25619 | 32177 ft | 376 kts | 279° |
| 2026-05-07 14:13 | 43.88801 | 2.22098 | 31773 ft | 374 kts | 279° |
| 2026-05-07 14:13 | 43.89390 | 2.18591 | 31410 ft | 372 kts | 279° |
| 2026-05-07 14:14 | 43.89974 | 2.15112 | 31051 ft | 369 kts | 279° |
| 2026-05-07 14:14 | 43.90552 | 2.11657 | 30680 ft | 367 kts | 278° |
| 2026-05-07 14:14 | 43.91113 | 2.08217 | 30321 ft | 364 kts | 275° |
| 2026-05-07 14:14 | 43.91217 | 2.04765 | 29912 ft | 356 kts | 261° |
| 2026-05-07 14:15 | 43.90804 | 2.01419 | 29505 ft | 350 kts | 252° |
| 2026-05-07 14:15 | 43.90013 | 1.98255 | 29022 ft | 347 kts | 246° |
| 2026-05-07 14:15 | 43.89093 | 1.95096 | 27741 ft | 364 kts | 246° |
| 2026-05-07 14:15 | 43.88092 | 1.91749 | 26353 ft | 386 kts | 246° |
| 2026-05-07 14:16 | 43.87036 | 1.88235 | 25061 ft | 403 kts | 246° |
| 2026-05-07 14:16 | 43.85943 | 1.84576 | 23821 ft | 418 kts | 246° |
| 2026-05-07 14:16 | 43.84825 | 1.80811 | 22657 ft | 426 kts | 246° |
| 2026-05-07 14:16 | 43.83714 | 1.77047 | 22151 ft | 417 kts | 247° |
| 2026-05-07 14:17 | 43.82626 | 1.73355 | 21646 ft | 410 kts | 247° |
| 2026-05-07 14:17 | 43.81559 | 1.69731 | 21216 ft | 405 kts | 247° |
| 2026-05-07 14:17 | 43.80488 | 1.66101 | 20800 ft | 411 kts | 247° |
| 2026-05-07 14:17 | 43.79393 | 1.62397 | 20381 ft | 423 kts | 247° |
| 2026-05-07 14:18 | 43.78266 | 1.58589 | 19924 ft | 431 kts | 247° |
| 2026-05-07 14:18 | 43.77130 | 1.54755 | 19479 ft | 429 kts | 247° |
| 2026-05-07 14:18 | 43.76004 | 1.50957 | 19045 ft | 424 kts | 247° |
| 2026-05-07 14:18 | 43.74890 | 1.47205 | 18613 ft | 420 kts | 247° |
| 2026-05-07 14:19 | 43.73799 | 1.43538 | 18176 ft | 417 kts | 247° |
| 2026-05-07 14:19 | 43.72684 | 1.39797 | 17682 ft | 414 kts | 247° |
| 2026-05-07 14:19 | 43.71604 | 1.36178 | 17238 ft | 412 kts | 247° |
| 2026-05-07 14:19 | 43.70514 | 1.32533 | 16813 ft | 409 kts | 247° |
| 2026-05-07 14:20 | 43.69428 | 1.28904 | 16384 ft | 408 kts | 246° |
| 2026-05-07 14:20 | 43.68344 | 1.25288 | 15964 ft | 407 kts | 246° |
| 2026-05-07 14:20 | 43.67263 | 1.21687 | 15548 ft | 406 kts | 246° |
| 2026-05-07 14:20 | 43.66182 | 1.18090 | 15129 ft | 405 kts | 246° |
| 2026-05-07 14:21 | 43.65103 | 1.14505 | 14721 ft | 404 kts | 246° |
| 2026-05-07 14:21 | 43.64026 | 1.10933 | 14310 ft | 402 kts | 246° |
| 2026-05-07 14:21 | 43.62952 | 1.07374 | 13888 ft | 401 kts | 246° |
| 2026-05-07 14:21 | 43.61881 | 1.03833 | 13437 ft | 398 kts | 246° |
| 2026-05-07 14:22 | 43.60819 | 1.00322 | 13002 ft | 395 kts | 246° |
| 2026-05-07 14:22 | 43.59765 | 0.96846 | 12608 ft | 390 kts | 246° |
| 2026-05-07 14:22 | 43.58721 | 0.93408 | 12198 ft | 387 kts | 246° |
| 2026-05-07 14:22 | 43.57684 | 0.89996 | 11786 ft | 385 kts | 246° |
| 2026-05-07 14:23 | 43.56652 | 0.86602 | 11405 ft | 383 kts | 246° |
| 2026-05-07 14:23 | 43.55624 | 0.83231 | 11003 ft | 381 kts | 246° |
| 2026-05-07 14:23 | 43.54602 | 0.79882 | 10626 ft | 377 kts | 246° |
| 2026-05-07 14:23 | 43.53587 | 0.76557 | 10235 ft | 376 kts | 247° |
| 2026-05-07 14:24 | 43.52574 | 0.73246 | 10006 ft | 374 kts | 247° |
| 2026-05-07 14:24 | 43.51562 | 0.69943 | 9650 ft | 376 kts | 247° |
| 2026-05-07 14:24 | 43.50552 | 0.66650 | 9261 ft | 371 kts | 247° |
| 2026-05-07 14:24 | 43.49548 | 0.63384 | 8867 ft | 370 kts | 247° |
| 2026-05-07 14:25 | 43.48546 | 0.60126 | 8493 ft | 370 kts | 248° |
| 2026-05-07 14:25 | 43.47547 | 0.56879 | 8119 ft | 362 kts | 248° |
| 2026-05-07 14:25 | 43.46597 | 0.53800 | 7967 ft | 338 kts | 247° |
| 2026-05-07 14:25 | 43.45709 | 0.50926 | 7777 ft | 316 kts | 248° |
| 2026-05-07 14:26 | 43.44877 | 0.48229 | 7613 ft | 297 kts | 248° |
| 2026-05-07 14:26 | 43.44102 | 0.45727 | 7493 ft | 281 kts | 248° |
| 2026-05-07 14:26 | 43.43339 | 0.43265 | 7399 ft | 271 kts | 248° |
| 2026-05-07 14:26 | 43.42620 | 0.40939 | 7239 ft | 266 kts | 247° |
| 2026-05-07 14:27 | 43.41895 | 0.38596 | 6920 ft | 267 kts | 248° |
| 2026-05-07 14:27 | 43.41168 | 0.36252 | 6666 ft | 265 kts | 247° |
| 2026-05-07 14:27 | 43.40445 | 0.33922 | 6403 ft | 264 kts | 247° |
| 2026-05-07 14:27 | 43.39723 | 0.31596 | 6091 ft | 265 kts | 247° |
| 2026-05-07 14:28 | 43.38997 | 0.29262 | 5782 ft | 265 kts | 246° |
| 2026-05-07 14:28 | 43.38271 | 0.26925 | 5455 ft | 266 kts | 246° |
| 2026-05-07 14:28 | 43.37551 | 0.24615 | 5365 ft | 259 kts | 246° |
| 2026-05-07 14:28 | 43.36851 | 0.22372 | 5220 ft | 254 kts | 246° |
| 2026-05-07 14:29 | 43.36172 | 0.20194 | 5086 ft | 241 kts | 246° |
| 2026-05-07 14:29 | 43.35527 | 0.18127 | 4840 ft | 231 kts | 245° |
| 2026-05-07 14:29 | 43.34902 | 0.16128 | 4490 ft | 225 kts | 245° |
| 2026-05-07 14:29 | 43.34283 | 0.14150 | 3955 ft | 228 kts | 245° |
| 2026-05-07 14:30 | 43.33658 | 0.12157 | 3454 ft | 227 kts | 244° |
| 2026-05-07 14:30 | 43.33039 | 0.10186 | 3137 ft | 218 kts | 245° |
| 2026-05-07 14:30 | 43.32463 | 0.08345 | 2993 ft | 202 kts | 245° |
| 2026-05-07 14:30 | 43.31823 | 0.06748 | 2979 ft | 185 kts | 220° |
| 2026-05-07 14:31 | 43.30719 | 0.05959 | 3020 ft | 179 kts | 198° |
| 2026-05-07 14:31 | 43.29559 | 0.05324 | 2975 ft | 181 kts | 198° |
| 2026-05-07 14:31 | 43.28374 | 0.04704 | 3003 ft | 182 kts | 196° |
| 2026-05-07 14:31 | 43.27177 | 0.04095 | 2855 ft | 187 kts | 195° |
| 2026-05-07 14:32 | 43.25957 | 0.03476 | 2635 ft | 185 kts | 197° |
| 2026-05-07 14:32 | 43.24776 | 0.02874 | 2388 ft | 178 kts | 196° |
| 2026-05-07 14:32 | 43.23621 | 0.02289 | 2155 ft | 177 kts | 196° |
| 2026-05-07 14:32 | 43.22467 | 0.01704 | 1928 ft | 179 kts | 198° |
| 2026-05-07 14:33 | 43.21324 | 0.01121 | 1718 ft | 170 kts | 198° |
| 2026-05-07 14:33 | 43.20226 | 0.00564 | 1461 ft | 163 kts | 199° |
| 2026-05-07 14:33 | 43.19170 | 0.00030 | 1264 ft | 163 kts | 199° |
| 2026-05-07 14:33 | 43.18185 | -0.00471 | 1212 ft | 125 kts | 200° |
| 2026-05-07 14:34 | 43.17529 | -0.00803 | 1226 ft | 88 kts | 200° |
| 2026-05-07 14:34 | 43.17200 | -0.00970 | 1243 ft | 23 kts | 199° |
| 2026-05-07 14:34 | 43.17092 | -0.00915 | 1248 ft | 15 kts | 129° |
| 2026-05-07 14:34 | 43.17081 | -0.00786 | 1248 ft | 15 kts | 58° |
| 2026-05-07 14:35 | 43.17173 | -0.00719 | 1252 ft | 17 kts | 20° |
| 2026-05-07 14:35 | 43.17290 | -0.00659 | 1233 ft | 19 kts | 20° |
| 2026-05-07 14:35 | 43.17345 | -0.00631 | 1233 ft | 1 kts | 20° |
| 2026-05-07 14:35 | 43.17395 | -0.00607 | 1231 ft | 14 kts | 20° |
| 2026-05-07 14:36 | 43.17503 | -0.00552 | 1226 ft | 19 kts | 21° |
| 2026-05-07 14:36 | 43.17633 | -0.00473 | 1223 ft | 21 kts | 25° |
| 2026-05-07 14:36 | 43.17777 | -0.00371 | 1219 ft | 27 kts | 30° |
| 2026-05-07 14:36 | 43.17945 | -0.00245 | 1214 ft | 27 kts | 29° |
| 2026-05-07 14:37 | 43.18106 | -0.00122 | 1209 ft | 25 kts | 28° |
| 2026-05-07 14:37 | 43.18390 | 0.00096 | 1224 ft | 15 kts | 28° |
| 2026-05-07 14:37 | 43.18419 | 0.00211 | 1222 ft | 15 kts | 102° |
| 2026-05-07 14:38 | 43.18417 | 0.00292 | 1220 ft | 5 kts | 54° |
| 2026-05-07 14:38 | 43.18462 | 0.00336 | 1219 ft | 11 kts | 32° |
| 2026-05-07 14:38 | 43.18470 | 0.00343 | 1219 ft | 0 kts | 32° |